Time;durP1;ratioP1;P1;durP2;ratioP2;P2;SDS_P1;SDS_P2;PMS_P1;PMS_P2;Temp;Humidity;BMP_temperature;BMP_pressure;BME280_temperature;BME280_humidity;BME280_pressure;Samples;Min_cycle;Max_cycle;Signal;HPM_P1;HPM_P2
2023/01/11 00:02:24;;;;;;;;;;;10.90;99.90;;;;;;5070148;28;20042;-63
2023/01/11 00:04:50;;;;;;;;;;;10.90;99.90;;;;;;5071644;28;19966;-66
2023/01/11 00:07:15;;;;;;;;;;;10.90;99.90;;;;;;5071519;28;19911;-66
2023/01/11 00:09:41;;;;;;;;;;;10.90;99.90;;;;;;5071203;28;20420;-65
2023/01/11 00:12:07;;;;;;;;;;;10.90;99.90;;;;;;5073139;28;19918;-65
2023/01/11 00:14:33;;;;;;;;;;;10.90;99.90;;;;;;5091448;28;19912;-66
2023/01/11 00:16:59;;;;;;;;;;;10.90;99.90;;;;;;5091565;28;19904;-63
2023/01/11 00:19:25;;;;;;;;;;;10.80;99.90;;;;;;5091639;28;19911;-66
2023/01/11 00:21:50;;;;;;;;;;;10.90;99.90;;;;;;5092013;28;19958;-66
2023/01/11 00:24:16;;;;;;;;;;;10.90;99.90;;;;;;5091523;28;19904;-66
2023/01/11 00:26:42;;;;;;;;;;;10.90;99.90;;;;;;5091758;28;19904;-62
2023/01/11 00:29:08;;;;;;;;;;;11.00;99.90;;;;;;5091714;28;20366;-65
2023/01/11 00:31:33;;;;;;;;;;;11.00;99.90;;;;;;5091208;28;19903;-64
2023/01/11 00:33:59;;;;;;;;;;;11.00;99.90;;;;;;5091444;28;19912;-66
2023/01/11 00:36:25;;;;;;;;;;;11.00;99.90;;;;;;5073676;28;19908;-66
2023/01/11 00:38:52;;;;;;;;;;;11.00;99.90;;;;;;5091524;28;20065;-68
2023/01/11 00:49:32;;;;;;;;;;;10.80;99.90;;;;;;5092302;28;19977;-67
2023/01/11 00:51:58;;;;;;;;;;;10.80;99.90;;;;;;5091773;28;19904;-67
2023/01/11 00:54:24;;;;;;;;;;;10.80;99.90;;;;;;5073510;28;20261;-67
2023/01/11 00:56:49;;;;;;;;;;;10.80;99.90;;;;;;5091676;28;19950;-67
2023/01/11 00:59:15;;;;;;;;;;;10.80;99.90;;;;;;5091897;28;20019;-67
2023/01/11 01:01:42;;;;;;;;;;;10.70;99.90;;;;;;5091314;28;19908;-64
2023/01/11 01:04:08;;;;;;;;;;;10.80;99.90;;;;;;5091657;28;19968;-67
2023/01/11 01:06:33;;;;;;;;;;;10.80;99.90;;;;;;5087618;28;19911;-68
2023/01/11 01:08:59;;;;;;;;;;;10.80;99.90;;;;;;5080594;28;19915;-66
2023/01/11 01:11:25;;;;;;;;;;;10.90;99.90;;;;;;5077935;28;20347;-66
2023/01/11 01:16:36;;;;;;;;;;;10.90;99.90;;;;;;5055671;28;20276;-66
2023/01/11 01:19:04;;;;;;;;;;;10.90;99.90;;;;;;5053114;28;19978;-65
2023/01/11 01:21:36;;;;;;;;;;;10.90;99.90;;;;;;5074374;28;19954;-68
2023/01/11 01:24:02;;;;;;;;;;;10.80;99.90;;;;;;5074837;28;19915;-64
2023/01/11 01:26:28;;;;;;;;;;;10.80;99.90;;;;;;5074567;28;20364;-65
2023/01/11 01:28:54;;;;;;;;;;;10.90;99.90;;;;;;5089854;28;19904;-66
2023/01/11 01:31:20;;;;;;;;;;;10.90;99.90;;;;;;5087567;28;20361;-66
2023/01/11 01:33:46;;;;;;;;;;;11.00;99.90;;;;;;5090818;28;20014;-66
2023/01/11 01:36:12;;;;;;;;;;;11.00;99.90;;;;;;5094260;28;19911;-66
2023/01/11 01:38:39;;;;;;;;;;;11.00;99.90;;;;;;5093604;28;19998;-66
2023/01/11 01:41:06;;;;;;;;;;;11.00;99.90;;;;;;5094222;28;20298;-66
2023/01/11 01:43:46;;;;;;;;;;;11.00;99.90;;;;;;5076024;28;20003;-66
2023/01/11 01:46:12;;;;;;;;;;;11.00;99.90;;;;;;5094357;28;19924;-66
2023/01/11 01:48:38;;;;;;;;;;;11.00;99.90;;;;;;5094114;28;19908;-65
2023/01/11 01:51:06;;;;;;;;;;;11.00;99.90;;;;;;5093946;28;19911;-65
2023/01/11 01:53:34;;;;;;;;;;;11.10;99.90;;;;;;5093973;28;19965;-66
2023/01/11 01:56:04;;;;;;;;;;;11.10;99.90;;;;;;5094074;28;19950;-66
2023/01/11 01:58:34;;;;;;;;;;;11.20;99.90;;;;;;5089677;28;20358;-67
2023/01/11 02:01:45;;;;;;;;;;;11.20;99.90;;;;;;5094271;28;19904;-66
2023/01/11 02:03:48;;;;;;;;;;;11.10;99.90;;;;;;5093832;28;19969;-66
2023/01/11 02:06:16;;;;;;;;;;;11.00;99.90;;;;;;5093629;28;19946;-66
2023/01/11 02:08:43;;;;;;;;;;;11.00;99.90;;;;;;5094151;28;19949;-62
2023/01/11 02:11:28;;;;;;;;;;;11.00;99.90;;;;;;5093106;28;19904;-66
2023/01/11 02:13:55;;;;;;;;;;;11.00;99.90;;;;;;5093962;28;19912;-66
2023/01/11 02:16:21;;;;;;;;;;;11.00;99.90;;;;;;5093731;28;19934;-66
2023/01/11 02:18:47;;;;;;;;;;;11.00;99.90;;;;;;5075321;28;19912;-66
2023/01/11 02:21:23;;;;;;;;;;;10.90;99.90;;;;;;5093376;28;19947;-66
2023/01/11 02:24:20;;;;;;;;;;;10.90;99.90;;;;;;5093526;28;19904;-66
2023/01/11 02:26:59;;;;;;;;;;;10.90;99.90;;;;;;5051142;28;19994;-65
2023/01/11 02:29:44;;;;;;;;;;;10.90;99.90;;;;;;5050907;28;19921;-66
2023/01/11 02:32:18;;;;;;;;;;;11.00;99.90;;;;;;5050444;28;19905;-65
2023/01/11 02:34:55;;;;;;;;;;;11.00;99.90;;;;;;5050632;28;19964;-66
2023/01/11 02:37:21;;;;;;;;;;;11.00;99.90;;;;;;5051279;28;20015;-66
2023/01/11 02:40:06;;;;;;;;;;;10.90;99.90;;;;;;5050700;28;19912;-66
2023/01/11 02:45:55;;;;;;;;;;;10.80;99.90;;;;;;5050753;28;19911;-66
2023/01/11 02:48:38;;;;;;;;;;;10.70;99.90;;;;;;5011424;28;20003;-66
2023/01/11 02:51:11;;;;;;;;;;;10.70;99.90;;;;;;5010783;28;20000;-66
2023/01/11 02:53:36;;;;;;;;;;;10.70;99.90;;;;;;5010710;28;19914;-65
2023/01/11 02:56:12;;;;;;;;;;;10.80;99.90;;;;;;5011228;28;19979;-68
2023/01/11 02:58:39;;;;;;;;;;;10.70;99.90;;;;;;5013875;28;19909;-66
2023/01/11 03:01:05;;;;;;;;;;;10.70;99.90;;;;;;5030718;28;20000;-66
2023/01/11 03:03:33;;;;;;;;;;;10.70;99.90;;;;;;5030485;28;20420;-66
2023/01/11 03:06:02;;;;;;;;;;;10.70;99.90;;;;;;5013846;28;19909;-65
2023/01/11 03:08:37;;;;;;;;;;;10.70;99.90;;;;;;5030520;28;19915;-66
2023/01/11 03:14:27;;;;;;;;;;;10.60;99.90;;;;;;5030064;28;19920;-66
2023/01/11 03:17:01;;;;;;;;;;;10.60;99.90;;;;;;5029922;28;19940;-66
2023/01/11 03:19:43;;;;;;;;;;;10.60;99.90;;;;;;5030228;28;19925;-66
2023/01/11 03:22:14;;;;;;;;;;;10.60;99.90;;;;;;5030234;28;19905;-66
2023/01/11 03:24:46;;;;;;;;;;;10.60;99.90;;;;;;5049893;28;19973;-66
2023/01/11 03:27:12;;;;;;;;;;;10.60;99.90;;;;;;5070996;28;20360;-65
2023/01/11 03:29:44;;;;;;;;;;;10.60;99.90;;;;;;5070306;28;19905;-66
2023/01/11 03:32:13;;;;;;;;;;;10.60;99.90;;;;;;5072217;28;19969;-66
2023/01/11 03:34:47;;;;;;;;;;;10.60;99.90;;;;;;5072016;28;19912;-65
2023/01/11 03:37:22;;;;;;;;;;;10.60;99.90;;;;;;5072550;28;20384;-66
2023/01/11 03:40:03;;;;;;;;;;;10.60;99.90;;;;;;5071728;28;19961;-65
2023/01/11 03:42:29;;;;;;;;;;;10.60;99.90;;;;;;5071540;28;19904;-65
2023/01/11 03:44:56;;;;;;;;;;;10.60;99.90;;;;;;5071671;28;19912;-66
2023/01/11 03:47:24;;;;;;;;;;;10.60;99.90;;;;;;5071683;28;20001;-66
2023/01/11 03:49:52;;;;;;;;;;;10.60;99.90;;;;;;5071437;28;19980;-67
2023/01/11 03:52:24;;;;;;;;;;;10.60;99.90;;;;;;5071966;28;19908;-66
2023/01/11 03:54:50;;;;;;;;;;;10.60;99.90;;;;;;5071824;28;19919;-64
2023/01/11 03:57:19;;;;;;;;;;;10.60;99.90;;;;;;5072640;28;20009;-66
2023/01/11 03:59:45;;;;;;;;;;;10.70;99.90;;;;;;5072482;28;20240;-67
2023/01/11 04:02:14;;;;;;;;;;;10.70;99.90;;;;;;5070603;28;19904;-65
2023/01/11 04:04:40;;;;;;;;;;;10.70;99.90;;;;;;5072148;28;20336;-65
2023/01/11 04:07:07;;;;;;;;;;;10.70;99.90;;;;;;5072685;28;20031;-64
2023/01/11 04:09:33;;;;;;;;;;;10.80;99.90;;;;;;5072438;28;19904;-65
2023/01/11 04:12:00;;;;;;;;;;;10.80;99.90;;;;;;5092776;28;19911;-66
2023/01/11 04:14:26;;;;;;;;;;;10.80;99.90;;;;;;5093064;28;19981;-66
2023/01/11 04:16:53;;;;;;;;;;;10.80;99.90;;;;;;5092586;28;20331;-66
2023/01/11 04:19:19;;;;;;;;;;;10.80;99.90;;;;;;5092877;28;19948;-66
2023/01/11 04:21:44;;;;;;;;;;;10.80;99.90;;;;;;5093170;28;19904;-67
2023/01/11 04:24:12;;;;;;;;;;;10.70;99.90;;;;;;5092815;28;20271;-66
2023/01/11 04:26:38;;;;;;;;;;;10.70;99.90;;;;;;5092877;28;19908;-65
2023/01/11 04:29:04;;;;;;;;;;;10.70;99.90;;;;;;5093475;28;20363;-66
2023/01/11 04:31:30;;;;;;;;;;;10.60;99.90;;;;;;5093163;28;19904;-65
2023/01/11 04:33:56;;;;;;;;;;;10.60;99.90;;;;;;5092790;28;19949;-66
2023/01/11 04:36:21;;;;;;;;;;;10.70;99.90;;;;;;5092724;28;19911;-66
2023/01/11 04:38:47;;;;;;;;;;;10.70;99.90;;;;;;5092602;28;19911;-66
2023/01/11 04:43:57;;;;;;;;;;;10.60;99.90;;;;;;5092726;28;20009;-66
2023/01/11 04:46:24;;;;;;;;;;;10.60;99.90;;;;;;5092376;28;19904;-66
2023/01/11 04:48:50;;;;;;;;;;;10.60;99.90;;;;;;5092389;28;19939;-65
2023/01/11 04:51:16;;;;;;;;;;;10.60;99.90;;;;;;5092415;28;19950;-66
2023/01/11 04:53:42;;;;;;;;;;;10.60;99.90;;;;;;5058857;28;19917;-62
2023/01/11 04:56:10;;;;;;;;;;;10.60;99.90;;;;;;5038173;28;20004;-65
2023/01/11 04:58:38;;;;;;;;;;;10.60;99.90;;;;;;5056309;28;19905;-67
2023/01/11 05:01:07;;;;;;;;;;;10.60;99.90;;;;;;5055897;28;19908;-66
2023/01/11 05:03:34;;;;;;;;;;;10.50;99.90;;;;;;5056532;28;19905;-63
2023/01/11 05:06:00;;;;;;;;;;;10.60;99.90;;;;;;5055866;28;19904;-66
2023/01/11 05:08:27;;;;;;;;;;;10.60;99.90;;;;;;5056368;28;19912;-66
2023/01/11 05:10:54;;;;;;;;;;;10.60;99.90;;;;;;5056728;28;19912;-65
2023/01/11 05:13:20;;;;;;;;;;;10.60;99.90;;;;;;5055845;28;19996;-66
2023/01/11 05:15:46;;;;;;;;;;;10.60;99.90;;;;;;5054663;28;19915;-66
2023/01/11 05:18:11;;;;;;;;;;;10.70;99.90;;;;;;5056386;28;19954;-66
2023/01/11 05:20:38;;;;;;;;;;;10.80;99.90;;;;;;5056249;28;20003;-66
2023/01/11 05:23:04;;;;;;;;;;;11.00;99.90;;;;;;5056224;28;19904;-66
2023/01/11 05:25:30;;;;;;;;;;;11.10;99.90;;;;;;5056663;28;19915;-67
2023/01/11 05:27:56;;;;;;;;;;;11.20;99.90;;;;;;5070691;28;19970;-66
2023/01/11 05:30:21;;;;;;;;;;;11.10;99.90;;;;;;5076716;28;19905;-66
2023/01/11 05:32:47;;;;;;;;;;;11.10;99.90;;;;;;5076274;28;20348;-65
2023/01/11 05:35:13;;;;;;;;;;;11.00;99.90;;;;;;5075895;28;19909;-66
2023/01/11 05:37:39;;;;;;;;;;;10.90;99.90;;;;;;5076279;28;19905;-67
2023/01/11 05:40:05;;;;;;;;;;;10.90;99.90;;;;;;5075890;28;19923;-67
2023/01/11 05:42:31;;;;;;;;;;;10.90;99.90;;;;;;5084307;28;19950;-67
2023/01/11 05:47:41;;;;;;;;;;;11.00;99.90;;;;;;5096322;28;19911;-63
2023/01/11 05:50:08;;;;;;;;;;;11.00;99.90;;;;;;5087213;28;19912;-67
2023/01/11 05:52:36;;;;;;;;;;;10.90;99.90;;;;;;5075980;28;19908;-68
2023/01/11 05:55:02;;;;;;;;;;;10.90;99.90;;;;;;5077918;28;20261;-67
2023/01/11 05:57:29;;;;;;;;;;;10.90;99.90;;;;;;5090578;28;19904;-68
2023/01/11 05:59:55;;;;;;;;;;;10.80;99.90;;;;;;5075416;28;20061;-65
2023/01/11 06:02:20;;;;;;;;;;;10.80;99.90;;;;;;5075808;28;19971;-67
2023/01/11 06:04:46;;;;;;;;;;;10.80;99.90;;;;;;5076059;28;20289;-67
2023/01/11 06:07:13;;;;;;;;;;;10.80;99.90;;;;;;5094956;28;19904;-67
2023/01/11 06:09:40;;;;;;;;;;;10.80;99.90;;;;;;5095684;28;19904;-67
2023/01/11 06:12:06;;;;;;;;;;;10.80;99.90;;;;;;5095492;28;20062;-67
2023/01/11 06:14:31;;;;;;;;;;;10.80;99.90;;;;;;5095818;28;20435;-66
2023/01/11 06:17:00;;;;;;;;;;;10.70;99.90;;;;;;5094521;28;19904;-66
2023/01/11 06:19:26;;;;;;;;;;;10.70;99.90;;;;;;5094838;28;19919;-68
2023/01/11 06:21:57;;;;;;;;;;;10.70;99.90;;;;;;5076516;28;19908;-77
2023/01/11 06:24:24;;;;;;;;;;;10.80;99.90;;;;;;5095449;28;19911;-77
2023/01/11 06:26:52;;;;;;;;;;;10.80;99.90;;;;;;5058615;28;19911;-77
2023/01/11 06:29:18;;;;;;;;;;;10.80;99.90;;;;;;5094788;28;19952;-74
2023/01/11 06:31:48;;;;;;;;;;;10.80;99.90;;;;;;5093999;28;19915;-76
2023/01/11 06:34:14;;;;;;;;;;;10.90;99.90;;;;;;5088762;28;19916;-76
2023/01/11 06:36:40;;;;;;;;;;;10.90;99.90;;;;;;5073268;28;19993;-75
2023/01/11 06:39:06;;;;;;;;;;;11.00;99.90;;;;;;5055273;28;19916;-75
2023/01/11 06:41:33;;;;;;;;;;;11.30;99.90;;;;;;5073688;28;19912;-75
2023/01/11 06:43:59;;;;;;;;;;;11.60;99.90;;;;;;5073565;28;20379;-75
2023/01/11 06:46:26;;;;;;;;;;;12.10;99.90;;;;;;5073654;28;19905;-76
2023/01/11 06:48:52;;;;;;;;;;;12.40;99.90;;;;;;5072857;28;19904;-75
2023/01/11 06:51:18;;;;;;;;;;;12.80;99.90;;;;;;5072683;28;20419;-77
2023/01/11 06:53:46;;;;;;;;;;;13.30;99.90;;;;;;5072761;28;19912;-76
2023/01/11 06:56:14;;;;;;;;;;;13.30;99.90;;;;;;5072809;28;19905;-74
2023/01/11 06:58:40;;;;;;;;;;;13.60;99.90;;;;;;5072660;28;20012;-77
2023/01/11 07:01:10;;;;;;;;;;;13.70;99.90;;;;;;5073068;28;19995;-77
2023/01/11 07:03:38;;;;;;;;;;;14.40;99.90;;;;;;5072622;28;19911;-79
2023/01/11 07:06:04;;;;;;;;;;;15.40;99.90;;;;;;5054766;28;20414;-79
2023/01/11 07:08:52;;;;;;;;;;;16.50;99.90;;;;;;5073596;28;19912;-79
2023/01/11 07:11:17;;;;;;;;;;;16.50;99.90;;;;;;5073307;28;19999;-80
2023/01/11 07:13:43;;;;;;;;;;;16.90;99.90;;;;;;5073051;28;20008;-79
2023/01/11 07:16:10;;;;;;;;;;;17.90;99.90;;;;;;5073357;28;20268;-78
2023/01/11 07:18:36;;;;;;;;;;;18.10;99.90;;;;;;5073409;28;19908;-79
2023/01/11 07:21:03;;;;;;;;;;;18.90;99.90;;;;;;5073390;28;20314;-79
2023/01/11 07:23:29;;;;;;;;;;;19.60;99.90;;;;;;5073629;28;20274;-81
2023/01/11 07:25:58;;;;;;;;;;;19.60;99.90;;;;;;5074346;28;19999;-80
2023/01/11 07:28:27;;;;;;;;;;;19.50;99.90;;;;;;5073687;28;20313;-83
2023/01/11 07:31:11;;;;;;;;;;;20.50;99.90;;;;;;5055198;28;20082;-82
2023/01/11 07:33:37;;;;;;;;;;;21.20;99.90;;;;;;5073745;28;19915;-82
2023/01/11 07:36:05;;;;;;;;;;;21.90;99.90;;;;;;5074171;28;19908;-82
2023/01/11 07:38:31;;;;;;;;;;;21.90;99.90;;;;;;5073887;28;19911;-82
2023/01/11 07:40:58;;;;;;;;;;;22.20;99.90;;;;;;5073378;28;19917;-80
2023/01/11 07:43:23;;;;;;;;;;;22.10;99.90;;;;;;5086256;22;19927;-80
2023/01/11 07:45:58;;;;;;;;;;;22.60;99.90;;;;;;5094130;28;20354;-81
2023/01/11 07:48:25;;;;;;;;;;;22.60;99.90;;;;;;5093518;28;20003;-79
2023/01/11 07:50:51;;;;;;;;;;;22.40;99.90;;;;;;5093777;28;19904;-78
2023/01/11 07:53:25;;;;;;;;;;;22.40;99.90;;;;;;5093878;28;19951;-81
2023/01/11 07:55:50;;;;;;;;;;;21.70;99.90;;;;;;5093379;28;20413;-78
2023/01/11 07:58:19;;;;;;;;;;;20.30;99.90;;;;;;5093218;28;19904;-80
2023/01/11 08:01:00;;;;;;;;;;;19.30;99.90;;;;;;5093216;28;19987;-80
2023/01/11 08:03:28;;;;;;;;;;;18.00;99.90;;;;;;5093259;28;19904;-79
2023/01/11 08:05:53;;;;;;;;;;;17.80;99.90;;;;;;5074859;28;20364;-78
2023/01/11 08:08:19;;;;;;;;;;;16.70;99.90;;;;;;5093455;28;20007;-79
2023/01/11 08:16:32;;;;;;;;;;;15.10;99.90;;;;;;5093127;28;20268;-80
2023/01/11 08:18:58;;;;;;;;;;;15.10;99.90;;;;;;5074658;28;20346;-80
2023/01/11 08:21:24;;;;;;;;;;;15.20;99.90;;;;;;5092338;28;19904;-80
2023/01/11 08:23:52;;;;;;;;;;;15.10;99.90;;;;;;5092458;28;19933;-79
2023/01/11 08:26:17;;;;;;;;;;;15.30;99.90;;;;;;5092616;28;20033;-78
2023/01/11 08:28:44;;;;;;;;;;;15.50;99.90;;;;;;5092077;28;20002;-80
2023/01/11 08:31:10;;;;;;;;;;;15.60;99.90;;;;;;5092918;28;20431;-73
2023/01/11 08:33:35;;;;;;;;;;;15.80;99.90;;;;;;5092686;28;19912;-80
2023/01/11 08:36:06;;;;;;;;;;;15.80;99.90;;;;;;5092885;28;20343;-79
2023/01/11 08:38:32;;;;;;;;;;;16.00;99.90;;;;;;5091480;28;19904;-79
2023/01/11 08:40:57;;;;;;;;;;;16.00;99.90;;;;;;5093204;28;19904;-81
2023/01/11 08:43:24;;;;;;;;;;;16.20;99.90;;;;;;5092169;28;19916;-78
2023/01/11 08:45:50;;;;;;;;;;;16.60;99.90;;;;;;5092889;28;20267;-81
2023/01/11 08:48:16;;;;;;;;;;;16.70;99.90;;;;;;5074360;28;19923;-81
2023/01/11 08:50:43;;;;;;;;;;;16.60;99.90;;;;;;5074784;28;19955;-80
2023/01/11 08:53:12;;;;;;;;;;;16.30;99.90;;;;;;5092600;28;19912;-82
2023/01/11 08:55:40;;;;;;;;;;;16.30;99.90;;;;;;5093091;28;19958;-81
2023/01/11 08:58:06;;;;;;;;;;;16.40;99.90;;;;;;5092350;28;19904;-79
2023/01/11 09:00:32;;;;;;;;;;;16.40;99.90;;;;;;5092675;28;19964;-77
2023/01/11 09:03:01;;;;;;;;;;;16.40;99.90;;;;;;5092406;28;19904;-77
2023/01/11 09:05:26;;;;;;;;;;;16.30;99.90;;;;;;5092317;28;19949;-75
2023/01/11 09:07:58;;;;;;;;;;;16.10;99.90;;;;;;5073943;28;19950;-75
2023/01/11 09:10:25;;;;;;;;;;;15.60;99.90;;;;;;5092604;28;19904;-78
2023/01/11 09:12:52;;;;;;;;;;;15.30;99.90;;;;;;5091903;28;19904;-76
2023/01/11 09:15:30;;;;;;;;;;;15.60;99.90;;;;;;5091505;28;19955;-78
2023/01/11 09:17:59;;;;;;;;;;;15.90;99.90;;;;;;5092204;28;19904;-77
2023/01/11 09:20:24;;;;;;;;;;;16.10;99.90;;;;;;5073427;28;19992;-76
2023/01/11 09:25:26;;;;;;;;;;;16.50;99.90;;;;;;4904568;26;19920;-78
2023/01/11 09:27:51;;;;;;;;;;;16.50;99.90;;;;;;5072900;28;20249;-78
2023/01/11 09:30:19;;;;;;;;;;;16.40;99.90;;;;;;5054616;28;19904;-76
2023/01/11 09:32:46;;;;;;;;;;;16.60;99.90;;;;;;5088486;22;19942;-77
2023/01/11 09:35:14;;;;;;;;;;;16.50;99.90;;;;;;5093172;28;19904;-78
2023/01/11 09:37:43;;;;;;;;;;;16.40;99.90;;;;;;5093592;28;19904;-78
2023/01/11 09:40:15;;;;;;;;;;;16.20;99.90;;;;;;5092291;28;20319;-78
2023/01/11 09:43:07;;;;;;;;;;;16.40;99.90;;;;;;5094758;28;19966;-77
2023/01/11 09:45:34;;;;;;;;;;;16.60;99.90;;;;;;5078259;28;19904;-74
2023/01/11 09:48:14;;;;;;;;;;;16.60;99.90;;;;;;5103205;22;20236;-78
2023/01/11 09:50:44;;;;;;;;;;;16.30;99.90;;;;;;5094980;28;19916;-76
2023/01/11 09:53:15;;;;;;;;;;;16.20;99.90;;;;;;5077474;28;19912;-75
2023/01/11 09:55:50;;;;;;;;;;;16.20;99.90;;;;;;5102248;22;19936;-73
2023/01/11 09:58:48;;;;;;;;;;;16.30;99.90;;;;;;5094471;28;19916;-76
2023/01/11 10:01:29;;;;;;;;;;;16.20;99.90;;;;;;5095142;28;19979;-75
2023/01/11 10:04:11;;;;;;;;;;;16.10;99.90;;;;;;5076650;28;20033;-76
2023/01/11 10:07:11;;;;;;;;;;;16.10;99.90;;;;;;5076221;28;20275;-76
2023/01/11 10:09:50;;;;;;;;;;;16.10;99.90;;;;;;5094250;28;19905;-75
2023/01/11 10:12:33;;;;;;;;;;;16.40;99.90;;;;;;5094705;28;19904;-76
2023/01/11 10:15:04;;;;;;;;;;;16.10;99.90;;;;;;5094756;28;20332;-76
2023/01/11 10:18:01;;;;;;;;;;;15.70;99.90;;;;;;5094734;28;19911;-77
2023/01/11 10:20:37;;;;;;;;;;;15.60;99.90;;;;;;5102202;22;20340;-75
2023/01/11 10:26:28;;;;;;;;;;;16.30;99.90;;;;;;5101708;22;19926;-77
2023/01/11 10:29:21;;;;;;;;;;;16.70;99.90;;;;;;5073901;28;19947;-75
2023/01/11 10:34:44;;;;;;;;;;;16.40;99.90;;;;;;5073842;28;19916;-74
2023/01/11 10:41:01;;;;;;;;;;;16.00;99.90;;;;;;4986982;28;20045;-73
2023/01/11 10:43:28;;;;;;;;;;;16.10;99.90;;;;;;4971741;28;20409;-70
2023/01/11 10:46:26;;;;;;;;;;;16.30;99.90;;;;;;4956746;28;20227;-75
2023/01/11 10:49:12;;;;;;;;;;;16.40;99.90;;;;;;4970886;28;19906;-77
2023/01/11 10:51:43;;;;;;;;;;;16.40;99.90;;;;;;4971847;28;19913;-76
2023/01/11 10:54:16;;;;;;;;;;;16.30;99.90;;;;;;4972964;28;19953;-73
2023/01/11 10:57:00;;;;;;;;;;;16.30;99.90;;;;;;4972751;28;19906;-70
2023/01/11 10:59:26;;;;;;;;;;;16.60;99.90;;;;;;4991987;28;19910;-75
2023/01/11 11:02:10;;;;;;;;;;;16.50;99.90;;;;;;4991900;28;19913;-75
2023/01/11 11:05:00;;;;;;;;;;;16.80;99.90;;;;;;4991783;28;20000;-75
2023/01/11 11:08:05;;;;;;;;;;;16.40;99.90;;;;;;4991234;28;19936;-74
2023/01/11 11:10:58;;;;;;;;;;;16.30;99.90;;;;;;4948059;29;19907;-74
2023/01/11 11:13:36;;;;;;;;;;;16.50;99.90;;;;;;4957529;28;19973;-74
2023/01/11 11:16:12;;;;;;;;;;;16.20;99.90;;;;;;5010276;28;20420;-77
2023/01/11 11:18:50;;;;;;;;;;;15.90;99.90;;;;;;4994369;28;19909;-76
2023/01/11 11:21:24;;;;;;;;;;;16.10;99.90;;;;;;5010770;28;19955;-77
2023/01/11 11:23:54;;;;;;;;;;;16.50;99.90;;;;;;5010624;28;19983;-73
2023/01/11 11:26:23;;;;;;;;;;;16.60;99.90;;;;;;5010823;28;19917;-75
2023/01/11 11:29:01;;;;;;;;;;;16.70;99.90;;;;;;5010746;28;20258;-75
2023/01/11 11:31:28;;;;;;;;;;;16.70;99.90;;;;;;4994306;28;19960;-76
2023/01/11 11:33:55;;;;;;;;;;;16.60;99.90;;;;;;5008999;28;19933;-76
2023/01/11 11:36:21;;;;;;;;;;;16.60;99.90;;;;;;5009802;28;19957;-74
2023/01/11 11:39:01;;;;;;;;;;;16.80;99.90;;;;;;5010694;28;19909;-75
2023/01/11 11:41:45;;;;;;;;;;;16.80;99.90;;;;;;4994006;28;19912;-77
2023/01/11 11:44:18;;;;;;;;;;;17.30;99.90;;;;;;5010793;28;20008;-75
2023/01/11 11:46:55;;;;;;;;;;;17.60;99.90;;;;;;5038863;28;19904;-74
2023/01/11 11:49:20;;;;;;;;;;;17.70;99.90;;;;;;5092792;28;20283;-75
2023/01/11 11:51:47;;;;;;;;;;;17.50;99.90;;;;;;5092713;28;20019;-75
2023/01/11 11:54:18;;;;;;;;;;;17.40;99.90;;;;;;5093108;28;20419;-74
2023/01/11 11:56:44;;;;;;;;;;;17.20;99.90;;;;;;5093212;28;19904;-77
2023/01/11 11:59:14;;;;;;;;;;;17.50;99.90;;;;;;5093122;28;19927;-76
2023/01/11 12:01:45;;;;;;;;;;;17.30;99.90;;;;;;5093051;28;20310;-76
2023/01/11 12:04:52;;;;;;;;;;;17.40;99.90;;;;;;5073012;28;20003;-74
2023/01/11 12:07:20;;;;;;;;;;;17.60;99.90;;;;;;4991089;28;19906;-75
2023/01/11 12:09:54;;;;;;;;;;;17.80;99.90;;;;;;4991274;28;19905;-75
2023/01/11 12:12:21;;;;;;;;;;;17.70;99.90;;;;;;4991056;28;19909;-74
2023/01/11 12:15:05;;;;;;;;;;;17.70;99.90;;;;;;4990372;28;19928;-75
2023/01/11 12:17:31;;;;;;;;;;;17.70;99.90;;;;;;5029579;22;19920;-79
2023/01/11 12:19:57;;;;;;;;;;;18.00;99.90;;;;;;5092499;28;20005;-75
2023/01/11 12:22:25;;;;;;;;;;;17.80;99.90;;;;;;5092090;28;19936;-75
2023/01/11 12:25:09;;;;;;;;;;;17.90;99.90;;;;;;5092315;28;19904;-76
2023/01/11 12:27:37;;;;;;;;;;;17.90;99.90;;;;;;5092347;28;19904;-76
2023/01/11 12:30:26;;;;;;;;;;;17.60;99.90;;;;;;5092369;28;19961;-77
2023/01/11 12:32:52;;;;;;;;;;;17.40;99.90;;;;;;5068134;28;19941;-73
2023/01/11 12:35:56;;;;;;;;;;;17.20;99.90;;;;;;5091854;28;19904;-75
2023/01/11 12:38:38;;;;;;;;;;;17.30;99.90;;;;;;5091590;28;20351;-75
2023/01/11 12:41:42;;;;;;;;;;;17.30;99.90;;;;;;5089824;28;19962;-75
2023/01/11 12:44:34;;;;;;;;;;;17.60;99.90;;;;;;5092198;28;19930;-75
2023/01/11 12:47:04;;;;;;;;;;;17.60;99.90;;;;;;4991025;28;20036;-75
2023/01/11 12:49:39;;;;;;;;;;;17.30;99.90;;;;;;4991091;28;19906;-74
2023/01/11 12:52:23;;;;;;;;;;;17.30;99.90;;;;;;4990221;28;19906;-75
2023/01/11 12:55:04;;;;;;;;;;;17.50;99.90;;;;;;4991196;28;19914;-74
2023/01/11 12:57:35;;;;;;;;;;;17.40;99.90;;;;;;4990415;28;20365;-75
2023/01/11 13:00:20;;;;;;;;;;;17.50;99.90;;;;;;4990159;28;19906;-77
2023/01/11 13:03:04;;;;;;;;;;;17.70;99.90;;;;;;4990257;28;19929;-75
2023/01/11 13:05:59;;;;;;;;;;;17.50;99.90;;;;;;4990829;28;20040;-76
2023/01/11 13:08:56;;;;;;;;;;;17.00;99.90;;;;;;4990044;28;19909;-77
2023/01/11 13:11:42;;;;;;;;;;;17.10;99.90;;;;;;4974753;28;19912;-77
2023/01/11 13:14:08;;;;;;;;;;;17.10;99.90;;;;;;4991003;28;19965;-76
2023/01/11 13:16:46;;;;;;;;;;;16.70;99.90;;;;;;4993851;28;20358;-76
2023/01/11 13:19:37;;;;;;;;;;;16.50;99.90;;;;;;4994558;28;19924;-76
2023/01/11 13:22:04;;;;;;;;;;;16.30;99.90;;;;;;4978368;28;19905;-76
2023/01/11 13:24:31;;;;;;;;;;;16.50;99.90;;;;;;5074186;28;19935;-78
2023/01/11 13:27:04;;;;;;;;;;;16.60;99.90;;;;;;5091885;28;19911;-74
2023/01/11 13:29:32;;;;;;;;;;;16.40;99.90;;;;;;5096294;28;20332;-76
2023/01/11 13:32:01;;;;;;;;;;;16.30;99.90;;;;;;5096087;28;19911;-75
2023/01/11 13:34:50;;;;;;;;;;;16.20;99.90;;;;;;5096126;28;19918;-75
2023/01/11 13:37:21;;;;;;;;;;;15.80;99.90;;;;;;5040142;28;19904;-76
2023/01/11 13:39:50;;;;;;;;;;;15.90;99.90;;;;;;5091373;28;20178;-76
2023/01/11 13:42:23;;;;;;;;;;;16.00;99.90;;;;;;5077424;28;19904;-77
2023/01/11 13:45:08;;;;;;;;;;;16.20;99.90;;;;;;5096211;28;19904;-75
2023/01/11 13:47:43;;;;;;;;;;;16.40;99.90;;;;;;5096012;28;19950;-76
2023/01/11 13:50:32;;;;;;;;;;;16.60;99.90;;;;;;5095917;28;19904;-76
2023/01/11 13:53:01;;;;;;;;;;;16.50;99.90;;;;;;5094982;28;20037;-77
2023/01/11 13:56:01;;;;;;;;;;;16.50;99.90;;;;;;5095339;28;19904;-76
2023/01/11 13:58:58;;;;;;;;;;;16.30;99.90;;;;;;5095145;28;20356;-75
2023/01/11 14:01:48;;;;;;;;;;;16.00;99.90;;;;;;5095299;28;19908;-76
2023/01/11 14:04:21;;;;;;;;;;;16.10;99.90;;;;;;5095628;28;19908;-77
2023/01/11 14:07:12;;;;;;;;;;;16.30;99.90;;;;;;5102330;22;20375;-76
2023/01/11 14:09:59;;;;;;;;;;;16.10;99.90;;;;;;5076734;28;19904;-77
2023/01/11 14:12:25;;;;;;;;;;;15.70;99.90;;;;;;5076697;28;20356;-77
2023/01/11 14:15:10;;;;;;;;;;;15.70;99.90;;;;;;5094995;28;19919;-77
2023/01/11 14:17:38;;;;;;;;;;;15.90;99.90;;;;;;5095639;28;19905;-75
2023/01/11 14:20:21;;;;;;;;;;;16.00;99.90;;;;;;5076819;28;20298;-75
2023/01/11 14:23:07;;;;;;;;;;;16.10;99.90;;;;;;5094971;28;19904;-75
2023/01/11 14:25:37;;;;;;;;;;;16.00;99.90;;;;;;5095144;28;19904;-76
2023/01/11 14:28:24;;;;;;;;;;;16.00;99.90;;;;;;5093973;28;19911;-76
2023/01/11 14:30:56;;;;;;;;;;;16.30;99.90;;;;;;5083225;28;19958;-70
2023/01/11 14:33:30;;;;;;;;;;;16.30;99.90;;;;;;5086538;28;19977;-74
2023/01/11 14:35:57;;;;;;;;;;;16.50;99.90;;;;;;5074313;28;19911;-70
2023/01/11 14:38:26;;;;;;;;;;;16.80;99.90;;;;;;5074903;28;19904;-75
2023/01/11 14:40:55;;;;;;;;;;;16.80;99.90;;;;;;5083435;28;19904;-74
2023/01/11 14:43:33;;;;;;;;;;;16.70;99.90;;;;;;5082421;28;19904;-74
2023/01/11 14:46:06;;;;;;;;;;;16.70;99.90;;;;;;5095475;28;19915;-71
2023/01/11 14:48:43;;;;;;;;;;;16.70;99.90;;;;;;5095027;28;19908;-71
2023/01/11 14:51:35;;;;;;;;;;;16.50;99.90;;;;;;5094710;28;19908;-73
2023/01/11 14:54:01;;;;;;;;;;;16.40;99.90;;;;;;5071138;28;19912;-76
2023/01/11 14:56:33;;;;;;;;;;;16.30;99.90;;;;;;5094120;28;19904;-74
2023/01/11 14:59:05;;;;;;;;;;;16.30;99.90;;;;;;5094709;28;19908;-75
2023/01/11 15:01:59;;;;;;;;;;;16.60;99.90;;;;;;5094073;28;19926;-78
2023/01/11 15:04:25;;;;;;;;;;;16.70;99.90;;;;;;5075815;28;19904;-78
2023/01/11 15:07:03;;;;;;;;;;;16.70;99.90;;;;;;5076031;28;20330;-78
2023/01/11 15:12:13;;;;;;;;;;;16.60;99.90;;;;;;5101267;22;19973;-76
2023/01/11 15:14:44;;;;;;;;;;;16.40;99.90;;;;;;5075373;28;20005;-76
2023/01/11 15:20:05;;;;;;;;;;;16.00;99.90;;;;;;5093961;28;19910;-74
2023/01/11 15:22:52;;;;;;;;;;;16.20;99.90;;;;;;5093545;28;19911;-77
2023/01/11 15:25:24;;;;;;;;;;;16.00;99.90;;;;;;5093498;28;19949;-76
2023/01/11 15:27:51;;;;;;;;;;;16.00;99.90;;;;;;5074844;28;19943;-77
2023/01/11 15:30:29;;;;;;;;;;;15.80;99.90;;;;;;5093402;28;19957;-77